Time;durP1;ratioP1;P1;durP2;ratioP2;P2;SDS_P1;SDS_P2;PMS_P1;PMS_P2;Temp;Humidity;BMP_temperature;BMP_pressure;BME280_temperature;BME280_humidity;BME280_pressure;Samples;Min_cycle;Max_cycle;Signal;HPM_P1;HPM_P2
2023/09/13 00:01:49;;;;;;;12.55;8.98;;;22.50;79.30;;;;;;5022386;28;20024;-69
2023/09/13 00:04:14;;;;;;;13.75;8.77;;;22.60;79.30;;;;;;5019991;28;20034;-69
2023/09/13 00:06:40;;;;;;;12.13;8.15;;;22.60;79.20;;;;;;5026785;28;20104;-69
2023/09/13 00:09:06;;;;;;;11.90;9.32;;;22.50;79.20;;;;;;5029002;28;20025;-69
2023/09/13 00:11:32;;;;;;;13.30;9.30;;;22.60;79.20;;;;;;5019801;28;20022;-69
2023/09/13 00:13:58;;;;;;;13.00;9.77;;;22.50;79.20;;;;;;5019281;28;20434;-69
2023/09/13 00:16:26;;;;;;;12.23;8.45;;;22.50;79.30;;;;;;5023509;28;20052;-69
2023/09/13 00:18:52;;;;;;;11.77;9.10;;;22.50;79.30;;;;;;5024395;28;20025;-69
2023/09/13 00:21:18;;;;;;;11.63;9.00;;;22.50;79.40;;;;;;5019247;28;20347;-71
2023/09/13 00:23:45;;;;;;;13.50;8.88;;;22.50;79.50;;;;;;5024367;28;20022;-70
2023/09/13 00:26:11;;;;;;;10.95;7.90;;;22.50;79.40;;;;;;5023604;28;20026;-69
2023/09/13 00:28:38;;;;;;;11.15;8.18;;;22.40;79.30;;;;;;5021435;28;20033;-69
2023/09/13 00:31:03;;;;;;;11.70;8.50;;;22.40;79.30;;;;;;5024161;28;20022;-69
2023/09/13 00:33:29;;;;;;;13.20;9.32;;;22.50;79.50;;;;;;5028059;28;20116;-69
2023/09/13 00:35:56;;;;;;;12.07;9.00;;;22.50;79.50;;;;;;5020298;28;20033;-69
2023/09/13 00:38:24;;;;;;;12.90;9.57;;;22.40;79.50;;;;;;5024226;28;20022;-69
2023/09/13 00:40:49;;;;;;;13.27;9.48;;;22.50;79.60;;;;;;5024194;28;20083;-69
2023/09/13 00:43:15;;;;;;;13.98;9.68;;;22.40;79.50;;;;;;5047367;28;20049;-69
2023/09/13 00:45:41;;;;;;;12.27;8.93;;;22.40;79.50;;;;;;5050901;28;20521;-69
2023/09/13 00:48:08;;;;;;;14.05;9.43;;;22.40;79.50;;;;;;5016717;28;20497;-69
2023/09/13 00:50:36;;;;;;;13.45;9.57;;;22.40;79.50;;;;;;5017274;28;20083;-69
2023/09/13 00:53:06;;;;;;;12.75;9.77;;;22.40;79.50;;;;;;5024029;28;20028;-69
2023/09/13 00:55:32;;;;;;;12.55;9.32;;;22.40;79.50;;;;;;5022142;28;20105;-69
2023/09/13 00:57:58;;;;;;;13.65;9.25;;;22.40;79.50;;;;;;5022618;28;20035;-69
2023/09/13 01:00:27;;;;;;;15.93;10.30;;;22.40;79.50;;;;;;5018816;28;20028;-69
2023/09/13 01:02:54;;;;;;;12.85;9.60;;;22.40;79.60;;;;;;5029174;28;20700;-69
2023/09/13 01:05:20;;;;;;;13.30;9.88;;;22.30;79.60;;;;;;5050705;28;20109;-69
2023/09/13 01:07:48;;;;;;;14.02;9.70;;;22.40;79.80;;;;;;5025007;28;20514;-69
2023/09/13 01:10:14;;;;;;;11.52;9.50;;;22.30;79.80;;;;;;5025198;28;20029;-69
2023/09/13 01:12:40;;;;;;;12.80;9.93;;;22.30;79.80;;;;;;5025407;28;20459;-69
2023/09/13 01:15:07;;;;;;;12.52;9.23;;;22.30;79.90;;;;;;5025907;28;20041;-69
2023/09/13 01:17:34;;;;;;;14.02;9.98;;;22.20;79.90;;;;;;5027261;28;20454;-69
2023/09/13 01:20:16;;;;;;;14.57;9.63;;;22.30;80.00;;;;;;5028317;28;20024;-69
2023/09/13 01:23:16;;;;;;;13.00;9.57;;;22.30;80.00;;;;;;5026165;28;20101;-69
2023/09/13 01:25:50;;;;;;;13.70;9.70;;;22.30;80.00;;;;;;5031001;28;20028;-69
2023/09/13 01:28:39;;;;;;;14.30;10.05;;;22.20;80.00;;;;;;5021918;28;20033;-69
2023/09/13 01:31:07;;;;;;;12.55;9.32;;;22.20;80.00;;;;;;5028643;28;20109;-69
2023/09/13 01:33:33;;;;;;;13.68;10.02;;;22.20;80.00;;;;;;5037560;28;20053;-69
2023/09/13 01:36:00;;;;;;;13.20;9.90;;;22.20;80.00;;;;;;5018170;28;20025;-69
2023/09/13 01:38:26;;;;;;;13.82;10.30;;;22.20;80.00;;;;;;5024665;28;20093;-69
2023/09/13 01:40:56;;;;;;;12.57;10.63;;;22.20;80.00;;;;;;5025339;28;20021;-69
2023/09/13 01:43:22;;;;;;;15.20;11.32;;;22.20;80.00;;;;;;5027661;28;20057;-69
2023/09/13 01:45:49;;;;;;;14.70;11.23;;;22.20;80.00;;;;;;5027136;28;20350;-69
2023/09/13 01:48:16;;;;;;;15.45;11.45;;;22.20;80.00;;;;;;5027555;28;20077;-69
2023/09/13 01:50:43;;;;;;;15.00;11.30;;;22.20;80.00;;;;;;5006780;28;20053;-69
2023/09/13 01:53:09;;;;;;;14.25;11.32;;;22.20;80.00;;;;;;5027850;28;20030;-70
2023/09/13 01:55:35;;;;;;;13.77;9.82;;;22.20;80.00;;;;;;5029810;28;20035;-69
2023/09/13 01:58:02;;;;;;;14.35;11.07;;;22.20;80.00;;;;;;5039223;28;20105;-71
2023/09/13 02:00:27;;;;;;;14.40;10.82;;;22.20;80.10;;;;;;5031879;28;20033;-70
2023/09/13 02:02:53;;;;;;;13.90;10.35;;;22.20;80.00;;;;;;5006109;28;20028;-69
2023/09/13 02:05:20;;;;;;;14.90;10.75;;;22.20;80.00;;;;;;5021703;28;20021;-70
2023/09/13 02:07:45;;;;;;;13.60;11.15;;;22.20;80.00;;;;;;5030280;28;20025;-70
2023/09/13 02:10:11;;;;;;;14.52;10.45;;;22.20;80.10;;;;;;5024249;28;20031;-70
2023/09/13 02:12:37;;;;;;;14.55;11.13;;;22.10;80.10;;;;;;5029051;28;20120;-70
2023/09/13 02:15:04;;;;;;;14.63;11.02;;;22.20;80.20;;;;;;5012663;28;20426;-71
2023/09/13 02:17:32;;;;;;;15.90;11.27;;;22.20;80.20;;;;;;5019181;28;20021;-70
2023/09/13 02:19:57;;;;;;;15.52;10.35;;;22.20;80.20;;;;;;5016448;28;20311;-73
2023/09/13 02:22:23;;;;;;;14.70;10.63;;;22.20;80.20;;;;;;5029657;28;20050;-70
2023/09/13 02:24:49;;;;;;;18.35;11.88;;;22.10;80.20;;;;;;5026850;28;20040;-71
2023/09/13 02:27:15;;;;;;;15.88;11.52;;;22.10;80.30;;;;;;5026442;28;20080;-69
2023/09/13 02:29:40;;;;;;;14.18;10.07;;;22.10;80.40;;;;;;5023658;28;20025;-69
2023/09/13 02:32:06;;;;;;;14.98;10.77;;;22.20;80.50;;;;;;5024737;28;20124;-69
2023/09/13 02:34:32;;;;;;;13.30;10.45;;;22.10;80.40;;;;;;5021805;28;20073;-69
2023/09/13 02:36:58;;;;;;;14.65;10.77;;;22.10;80.40;;;;;;5025619;28;20033;-70
2023/09/13 02:39:31;;;;;;;17.75;11.40;;;22.10;80.50;;;;;;5029821;28;20036;-69
2023/09/13 02:41:57;;;;;;;13.52;10.02;;;22.10;80.60;;;;;;5028588;28;20024;-69
2023/09/13 02:44:22;;;;;;;14.50;11.23;;;22.10;80.60;;;;;;5021200;28;20029;-69
2023/09/13 02:46:48;;;;;;;16.00;10.82;;;22.10;80.70;;;;;;5023357;28;20034;-69
2023/09/13 02:49:14;;;;;;;14.68;11.25;;;22.10;80.80;;;;;;5028683;28;20457;-69
2023/09/13 02:51:40;;;;;;;14.10;10.73;;;22.10;80.80;;;;;;5026544;28;20033;-69
2023/09/13 02:54:06;;;;;;;16.13;11.50;;;22.10;80.80;;;;;;5026941;28;20040;-69
2023/09/13 02:56:31;;;;;;;13.35;10.82;;;22.10;80.80;;;;;;5021418;28;20026;-69
2023/09/13 02:58:57;;;;;;;13.45;11.30;;;22.10;80.90;;;;;;5020537;28;20029;-69
2023/09/13 03:01:23;;;;;;;16.90;11.52;;;22.10;80.80;;;;;;5023646;28;20076;-70
2023/09/13 03:03:49;;;;;;;13.57;10.68;;;22.10;80.90;;;;;;5023548;28;20053;-69
2023/09/13 03:06:18;;;;;;;19.08;11.90;;;22.00;80.90;;;;;;5008279;28;20025;-69
2023/09/13 03:08:44;;;;;;;15.45;11.18;;;22.00;80.90;;;;;;5026888;28;20096;-70
2023/09/13 03:11:13;;;;;;;15.27;10.95;;;22.00;81.00;;;;;;5026819;28;20029;-69
2023/09/13 03:13:39;;;;;;;16.00;11.07;;;22.00;81.10;;;;;;5047077;28;20427;-69
2023/09/13 03:16:20;;;;;;;18.40;12.32;;;22.00;81.10;;;;;;5038309;28;20017;-70
2023/09/13 03:18:49;;;;;;;17.27;10.82;;;22.00;81.10;;;;;;4998538;28;20033;-69
2023/09/13 03:21:18;;;;;;;15.60;11.80;;;22.00;81.10;;;;;;5017733;28;20029;-69
2023/09/13 03:23:48;;;;;;;13.38;10.85;;;22.00;81.20;;;;;;5027761;28;20021;-69
2023/09/13 03:26:22;;;;;;;16.52;11.25;;;22.00;81.30;;;;;;5017178;28;20084;-69
2023/09/13 03:28:59;;;;;;;16.02;11.20;;;22.00;81.30;;;;;;5008527;28;20358;-69
2023/09/13 03:31:26;;;;;;;15.60;11.18;;;22.00;81.30;;;;;;5005277;28;20025;-69
2023/09/13 03:33:56;;;;;;;16.60;11.57;;;22.00;81.30;;;;;;5001743;28;20033;-69
2023/09/13 03:36:25;;;;;;;15.45;11.23;;;22.00;81.30;;;;;;4999894;28;20446;-69
2023/09/13 03:38:53;;;;;;;16.05;11.57;;;22.00;81.30;;;;;;5021994;28;20026;-69
2023/09/13 03:41:22;;;;;;;16.20;11.90;;;22.00;81.30;;;;;;5020366;28;20037;-69
2023/09/13 03:43:49;;;;;;;16.95;12.15;;;21.90;81.20;;;;;;5019312;28;20025;-69
2023/09/13 03:46:15;;;;;;;15.93;11.80;;;21.90;81.30;;;;;;5001343;28;20037;-69
2023/09/13 03:48:49;;;;;;;14.75;11.23;;;22.00;81.40;;;;;;5073123;27;20464;-69
2023/09/13 03:51:15;;;;;;;14.18;11.15;;;21.90;81.40;;;;;;5051042;28;20470;-69
2023/09/13 03:53:40;;;;;;;17.70;13.05;;;21.90;81.50;;;;;;5068330;28;20072;-69
2023/09/13 03:56:07;;;;;;;19.02;13.82;;;21.90;81.50;;;;;;5064543;28;20079;-69
2023/09/13 03:58:35;;;;;;;17.70;14.15;;;21.90;81.50;;;;;;5066093;28;20462;-68
2023/09/13 04:01:02;;;;;;;20.35;14.95;;;21.90;81.60;;;;;;5053183;28;20044;-69
2023/09/13 04:03:28;;;;;;;22.35;16.25;;;21.90;81.60;;;;;;5055644;28;20023;-69
2023/09/13 04:05:54;;;;;;;22.30;17.63;;;22.00;81.70;;;;;;5068312;28;20111;-69
2023/09/13 04:08:20;;;;;;;25.73;17.08;;;22.00;81.70;;;;;;5051965;28;20029;-69
2023/09/13 04:10:46;;;;;;;22.77;16.60;;;22.00;81.80;;;;;;5049347;28;20026;-69
2023/09/13 04:13:11;;;;;;;23.98;18.23;;;22.00;82.50;;;;;;5069778;28;20095;-69
2023/09/13 04:15:37;;;;;;;24.75;18.98;;;21.90;81.80;;;;;;5049963;28;20028;-69
2023/09/13 04:18:04;;;;;;;23.52;17.52;;;21.90;81.90;;;;;;5060806;28;20323;-69
2023/09/13 04:20:30;;;;;;;24.95;19.83;;;21.90;82.00;;;;;;5054187;28;20061;-69
2023/09/13 04:22:56;;;;;;;27.45;20.27;;;21.90;82.00;;;;;;5063765;28;20123;-68
2023/09/13 04:25:22;;;;;;;26.00;20.08;;;21.90;82.00;;;;;;5046167;28;20078;-68
2023/09/13 04:27:48;;;;;;;30.45;21.95;;;22.00;82.10;;;;;;5076604;28;20151;-68
2023/09/13 04:30:16;;;;;;;28.23;21.35;;;21.90;82.10;;;;;;5042060;28;20024;-68
2023/09/13 04:32:47;;;;;;;32.25;22.80;;;21.90;82.20;;;;;;5056603;28;20029;-68
2023/09/13 04:35:13;;;;;;;35.25;22.95;;;21.90;82.20;;;;;;5044571;28;20021;-68
2023/09/13 04:37:41;;;;;;;28.58;21.40;;;21.90;82.20;;;;;;5079695;28;20458;-68
2023/09/13 04:40:07;;;;;;;32.13;22.98;;;21.90;82.20;;;;;;5075019;28;20041;-68
2023/09/13 04:42:37;;;;;;;31.30;24.20;;;21.90;82.30;;;;;;5046523;28;20029;-68
2023/09/13 04:45:04;;;;;;;35.10;24.58;;;21.90;82.30;;;;;;5043437;28;20089;-67
2023/09/13 04:47:31;;;;;;;33.50;24.38;;;21.90;82.30;;;;;;5037269;28;20658;-69
2023/09/13 04:49:57;;;;;;;35.53;26.15;;;21.90;82.30;;;;;;5036668;28;20030;-69
2023/09/13 04:52:23;;;;;;;34.10;25.65;;;21.90;82.30;;;;;;5044688;28;20070;-69
2023/09/13 04:54:48;;;;;;;34.10;25.45;;;21.90;82.20;;;;;;5065170;28;20029;-68
2023/09/13 04:57:14;;;;;;;33.08;23.77;;;21.80;82.10;;;;;;5066834;28;20036;-69
2023/09/13 04:59:50;;;;;;;33.92;25.08;;;21.90;82.10;;;;;;5038647;28;20029;-69
2023/09/13 05:02:16;;;;;;;32.50;24.40;;;21.80;82.10;;;;;;5040485;28;20029;-69
2023/09/13 05:04:44;;;;;;;33.72;23.75;;;21.80;82.10;;;;;;5057433;28;20032;-69
2023/09/13 05:07:10;;;;;;;32.92;24.73;;;21.90;82.20;;;;;;5040356;28;20450;-69
2023/09/13 05:09:37;;;;;;;32.70;26.20;;;21.80;82.20;;;;;;5046923;28;20443;-69
2023/09/13 05:12:05;;;;;;;33.17;24.80;;;21.80;82.20;;;;;;5056845;28;20044;-69
2023/09/13 05:14:30;;;;;;;32.45;24.55;;;21.80;82.20;;;;;;5052953;28;20370;-69
2023/09/13 05:16:56;;;;;;;33.55;25.55;;;21.70;82.20;;;;;;5056706;28;20033;-69
2023/09/13 05:19:22;;;;;;;31.42;23.67;;;21.70;82.20;;;;;;5041714;28;20021;-69
2023/09/13 05:21:48;;;;;;;35.05;26.02;;;21.80;82.20;;;;;;5064247;28;20045;-69
2023/09/13 05:24:13;;;;;;;34.97;25.95;;;21.70;82.20;;;;;;5032759;28;20036;-68
2023/09/13 05:26:39;;;;;;;34.17;25.33;;;21.80;82.30;;;;;;5034228;28;20017;-68
2023/09/13 05:29:05;;;;;;;35.58;25.95;;;21.70;82.40;;;;;;5066210;28;20521;-68
2023/09/13 05:31:31;;;;;;;32.05;24.23;;;21.70;82.30;;;;;;5028218;28;20378;-68
2023/09/13 05:33:57;;;;;;;36.47;26.25;;;21.70;82.30;;;;;;5028297;28;20055;-68
2023/09/13 05:36:22;;;;;;;35.92;26.60;;;21.70;82.30;;;;;;5030283;28;20022;-68
2023/09/13 05:38:51;;;;;;;34.67;25.83;;;21.70;82.30;;;;;;5032696;28;20028;-70
2023/09/13 05:41:18;;;;;;;33.72;24.85;;;21.70;82.20;;;;;;5030428;28;20044;-70
2023/09/13 05:43:44;;;;;;;36.15;26.83;;;21.70;82.10;;;;;;5033672;28;20034;-69
2023/09/13 05:46:10;;;;;;;35.28;25.50;;;21.70;82.10;;;;;;5066452;28;20037;-72
2023/09/13 05:48:37;;;;;;;38.70;27.70;;;21.70;82.30;;;;;;5032173;28;20046;-70
2023/09/13 05:51:04;;;;;;;34.92;25.27;;;21.70;82.30;;;;;;5048070;28;20120;-70
2023/09/13 05:53:30;;;;;;;33.20;24.95;;;21.70;82.30;;;;;;5064327;28;20406;-70
2023/09/13 05:55:56;;;;;;;32.70;24.75;;;21.70;82.30;;;;;;5038932;28;20466;-71
2023/09/13 05:58:22;;;;;;;34.38;24.17;;;21.70;82.20;;;;;;5049087;28;20033;-70
2023/09/13 06:00:50;;;;;;;33.80;23.92;;;21.70;82.10;;;;;;5046722;28;20021;-70
2023/09/13 06:03:17;;;;;;;34.47;24.83;;;21.70;82.20;;;;;;5036812;28;20030;-70
2023/09/13 06:05:43;;;;;;;32.40;23.58;;;21.70;82.10;;;;;;5046433;28;20030;-71
2023/09/13 06:08:09;;;;;;;36.60;23.75;;;21.70;82.10;;;;;;5035932;28;20025;-71
2023/09/13 06:10:35;;;;;;;31.33;22.05;;;21.70;82.00;;;;;;5031476;28;20032;-70
2023/09/13 06:13:01;;;;;;;31.58;23.55;;;21.70;81.90;;;;;;5059958;28;20029;-70
2023/09/13 06:15:27;;;;;;;32.53;23.08;;;21.70;81.90;;;;;;5062999;28;20366;-70
2023/09/13 06:17:54;;;;;;;33.35;23.40;;;21.70;81.90;;;;;;5033718;28;20059;-71
2023/09/13 06:20:21;;;;;;;34.22;23.63;;;21.70;81.80;;;;;;5030237;28;20516;-71
2023/09/13 06:22:47;;;;;;;32.42;23.45;;;21.70;81.90;;;;;;5044854;28;20017;-71
2023/09/13 06:25:14;;;;;;;33.17;24.35;;;21.70;81.80;;;;;;5063997;28;20040;-72
2023/09/13 06:27:40;;;;;;;31.73;23.83;;;21.70;81.70;;;;;;5027358;28;21640;-71
2023/09/13 06:30:06;;;;;;;29.20;23.30;;;21.70;82.30;;;;;;5033213;28;20120;-71
2023/09/13 06:32:32;;;;;;;35.58;23.80;;;21.80;81.50;;;;;;5044522;28;20029;-71
2023/09/13 06:34:58;;;;;;;30.00;22.20;;;21.90;81.50;;;;;;5047874;28;20106;-71
2023/09/13 06:37:25;;;;;;;32.90;22.08;;;21.80;81.40;;;;;;5027281;28;20025;-71
2023/09/13 06:39:51;;;;;;;30.08;21.90;;;21.80;81.20;;;;;;5023138;28;20081;-71
2023/09/13 06:42:17;;;;;;;31.50;23.10;;;21.90;81.20;;;;;;5022209;28;20048;-70
2023/09/13 06:44:43;;;;;;;33.58;22.45;;;21.80;81.20;;;;;;5030876;28;20034;-72
2023/09/13 06:47:09;;;;;;;30.17;21.98;;;21.90;81.20;;;;;;5030204;28;20041;-71
2023/09/13 06:49:35;;;;;;;31.30;22.38;;;21.90;81.10;;;;;;5064440;28;20026;-71
2023/09/13 06:52:02;;;;;;;29.92;20.13;;;21.90;81.10;;;;;;5047166;28;20040;-71
2023/09/13 06:54:28;;;;;;;29.23;18.33;;;21.90;81.00;;;;;;5040186;28;20067;-70
2023/09/13 06:56:55;;;;;;;32.22;20.23;;;21.90;81.00;;;;;;5063537;28;20052;-71
2023/09/13 06:59:20;;;;;;;29.73;19.85;;;21.90;80.90;;;;;;5048870;28;20489;-70
2023/09/13 07:01:46;;;;;;;23.42;16.65;;;22.00;80.90;;;;;;5031848;28;20059;-71
2023/09/13 07:04:13;;;;;;;20.20;15.18;;;22.00;80.80;;;;;;5062926;28;20036;-71
2023/09/13 07:06:40;;;;;;;13.23;8.68;;;22.00;80.40;;;;;;5059272;28;20037;-70
2023/09/13 07:09:06;;;;;;;9.05;5.05;;;21.90;79.80;;;;;;5028103;28;20057;-69
2023/09/13 07:11:32;;;;;;;6.68;3.20;;;21.90;79.20;;;;;;5046428;28;20112;-72
2023/09/13 07:13:59;;;;;;;4.57;1.75;;;21.80;78.30;;;;;;5032387;28;20113;-71
2023/09/13 07:16:25;;;;;;;4.15;1.65;;;21.70;77.50;;;;;;5045291;28;20052;-70
2023/09/13 07:18:51;;;;;;;2.88;1.10;;;21.60;77.10;;;;;;5026336;28;20036;-70
2023/09/13 07:21:17;;;;;;;5.35;1.70;;;21.60;76.60;;;;;;5025230;28;20026;-72
2023/09/13 07:23:44;;;;;;;2.78;1.17;;;21.50;76.20;;;;;;5046551;28;20442;-70
2023/09/13 07:26:10;;;;;;;2.03;0.80;;;21.40;75.60;;;;;;5030975;28;20036;-70
2023/09/13 07:28:37;;;;;;;2.30;0.90;;;21.30;75.30;;;;;;5066734;28;20104;-70
2023/09/13 07:31:10;;;;;;;1.92;0.80;;;21.30;74.90;;;;;;5031785;28;20032;-69
2023/09/13 07:33:36;;;;;;;1.90;0.85;;;21.20;74.40;;;;;;5032926;28;20021;-70
2023/09/13 07:36:02;;;;;;;3.45;0.90;;;21.20;74.20;;;;;;5032404;28;20044;-69
2023/09/13 07:38:27;;;;;;;3.03;1.10;;;21.20;73.90;;;;;;5028203;28;20370;-70
2023/09/13 07:40:53;;;;;;;3.22;0.85;;;21.20;73.70;;;;;;5044577;28;20047;-69
2023/09/13 07:43:19;;;;;;;2.30;0.80;;;21.20;74.30;;;;;;5029976;28;20021;-70
2023/09/13 07:45:50;;;;;;;2.38;0.70;;;21.10;73.50;;;;;;5013637;28;20393;-70
2023/09/13 07:48:16;;;;;;;3.30;1.00;;;21.20;73.30;;;;;;5028021;28;20706;-70
2023/09/13 07:50:42;;;;;;;3.45;0.80;;;21.30;73.00;;;;;;5030302;28;20030;-70
2023/09/13 07:53:10;;;;;;;3.10;0.90;;;21.40;72.60;;;;;;5029472;28;20021;-70
2023/09/13 07:55:36;;;;;;;2.20;0.90;;;21.40;72.10;;;;;;5029419;28;20029;-70
2023/09/13 07:58:03;;;;;;;3.00;0.90;;;21.50;71.90;;;;;;5028673;28;20447;-71
2023/09/13 08:00:29;;;;;;;3.28;1.00;;;21.50;71.70;;;;;;5029227;28;20037;-69
2023/09/13 08:02:55;;;;;;;1.92;1.00;;;21.40;71.60;;;;;;5031123;28;20351;-70
2023/09/13 08:05:21;;;;;;;1.83;0.80;;;21.50;71.60;;;;;;5046127;28;20106;-70
2023/09/13 08:07:48;;;;;;;3.55;1.13;;;21.40;71.40;;;;;;5025924;28;20484;-69
2023/09/13 08:10:14;;;;;;;4.35;1.00;;;21.30;71.40;;;;;;5028832;28;20017;-69
2023/09/13 08:12:41;;;;;;;3.60;1.05;;;21.30;71.40;;;;;;5029350;28;20044;-69
2023/09/13 08:15:08;;;;;;;3.22;1.05;;;21.30;71.30;;;;;;5043432;28;20033;-69
2023/09/13 08:17:33;;;;;;;6.53;1.77;;;21.30;71.10;;;;;;5030770;28;20125;-69
2023/09/13 08:20:01;;;;;;;2.78;0.98;;;21.40;70.90;;;;;;5034383;28;20100;-70
2023/09/13 08:22:27;;;;;;;3.55;1.08;;;21.50;70.70;;;;;;5033718;28;20028;-70
2023/09/13 08:24:53;;;;;;;2.75;1.00;;;21.50;70.60;;;;;;5017627;28;20044;-69
2023/09/13 08:27:19;;;;;;;3.03;0.93;;;21.50;70.50;;;;;;5047962;28;20109;-70
2023/09/13 08:29:44;;;;;;;2.72;1.00;;;21.50;70.30;;;;;;5030058;28;20104;-71
2023/09/13 08:32:13;;;;;;;3.20;1.00;;;21.50;70.20;;;;;;5031515;28;20048;-70
2023/09/13 08:34:39;;;;;;;2.08;0.88;;;21.50;70.20;;;;;;5040245;28;20028;-70
2023/09/13 08:37:04;;;;;;;2.15;0.82;;;21.50;70.90;;;;;;5051222;28;20018;-71
2023/09/13 08:39:30;;;;;;;3.47;1.20;;;21.50;70.30;;;;;;5039132;28;20356;-70
2023/09/13 08:41:56;;;;;;;3.15;1.00;;;21.50;70.30;;;;;;5022742;28;20025;-70
2023/09/13 08:44:22;;;;;;;4.63;1.17;;;21.60;70.20;;;;;;5042659;28;20084;-71
2023/09/13 08:46:55;;;;;;;2.97;1.05;;;21.70;69.90;;;;;;5042814;28;20128;-70
2023/09/13 08:49:22;;;;;;;5.38;1.50;;;21.70;69.30;;;;;;5056973;28;20084;-69
2023/09/13 08:51:50;;;;;;;3.60;1.17;;;21.70;69.00;;;;;;5048269;28;20078;-69
2023/09/13 08:54:17;;;;;;;3.10;1.27;;;21.70;69.00;;;;;;5040760;28;20462;-69
2023/09/13 08:56:43;;;;;;;4.35;1.20;;;21.60;69.00;;;;;;5046703;28;20348;-70
2023/09/13 08:59:09;;;;;;;4.72;1.52;;;21.60;69.00;;;;;;5050046;28;20030;-69
2023/09/13 09:01:42;;;;;;;5.75;1.35;;;21.50;69.00;;;;;;5044457;28;20022;-70
2023/09/13 09:04:09;;;;;;;4.07;1.30;;;21.60;69.00;;;;;;5038905;28;20450;-69
2023/09/13 09:06:36;;;;;;;3.75;1.38;;;21.90;68.90;;;;;;5040032;28;20028;-70
2023/09/13 09:09:04;;;;;;;6.25;1.40;;;22.30;67.90;;;;;;5032454;28;20386;-70
2023/09/13 09:11:32;;;;;;;3.92;1.50;;;22.70;66.80;;;;;;5033169;28;20040;-70
2023/09/13 09:14:00;;;;;;;3.13;1.10;;;23.00;65.70;;;;;;5033704;28;20029;-70
2023/09/13 09:16:27;;;;;;;3.47;1.00;;;23.20;65.00;;;;;;5049585;28;20026;-70
2023/09/13 09:18:54;;;;;;;4.10;1.30;;;23.50;64.30;;;;;;5030071;28;20030;-70
2023/09/13 09:21:20;;;;;;;4.25;1.13;;;23.70;63.80;;;;;;5047170;28;20466;-70
2023/09/13 09:23:46;;;;;;;4.82;1.38;;;23.90;63.00;;;;;;5031920;28;20029;-70
2023/09/13 09:26:12;;;;;;;3.25;1.00;;;24.10;62.50;;;;;;5031676;28;20466;-70
2023/09/13 09:28:38;;;;;;;4.22;1.30;;;24.30;61.80;;;;;;5029197;28;20125;-68
2023/09/13 09:31:04;;;;;;;2.58;0.98;;;24.40;60.80;;;;;;5048982;28;20028;-70
2023/09/13 09:33:31;;;;;;;1.75;0.90;;;24.50;60.50;;;;;;5034036;28;20047;-70
2023/09/13 09:35:59;;;;;;;4.93;1.40;;;24.60;60.30;;;;;;5041236;28;20024;-70
2023/09/13 09:38:28;;;;;;;3.35;0.93;;;24.70;60.10;;;;;;5040179;28;20035;-70
2023/09/13 09:41:00;;;;;;;3.75;1.02;;;24.80;59.80;;;;;;5045531;28;20092;-70
2023/09/13 09:43:26;;;;;;;2.38;0.60;;;24.90;59.40;;;;;;5034242;28;20025;-71
2023/09/13 09:45:53;;;;;;;3.30;1.27;;;25.10;59.30;;;;;;5040998;28;20037;-71
2023/09/13 09:48:20;;;;;;;2.45;1.10;;;25.20;58.80;;;;;;5032279;28;20049;-70
2023/09/13 09:50:47;;;;;;;5.70;1.23;;;25.30;58.30;;;;;;5036981;28;20087;-70
2023/09/13 09:53:17;;;;;;;2.78;1.17;;;25.50;58.00;;;;;;5038465;28;20082;-71
2023/09/13 09:55:44;;;;;;;2.05;0.88;;;25.60;57.40;;;;;;5040131;28;20030;-68
2023/09/13 09:58:10;;;;;;;3.15;0.88;;;25.40;57.40;;;;;;5036863;28;20029;-68
2023/09/13 10:00:50;;;;;;;2.50;1.00;;;25.20;57.60;;;;;;5044085;28;20037;-70
2023/09/13 10:03:18;;;;;;;2.75;1.10;;;25.10;57.40;;;;;;5050599;28;20063;-71
2023/09/13 10:06:06;;;;;;;3.05;0.93;;;25.10;57.70;;;;;;5033623;28;20038;-70
2023/09/13 10:08:45;;;;;;;2.97;0.93;;;25.00;57.90;;;;;;5040571;28;20033;-70
2023/09/13 10:11:16;;;;;;;4.07;1.27;;;24.90;58.30;;;;;;5048716;28;20048;-68
2023/09/13 10:13:46;;;;;;;3.88;1.38;;;24.80;58.20;;;;;;5034247;28;20072;-68
2023/09/13 10:16:14;;;;;;;2.92;1.20;;;24.80;58.30;;;;;;5049216;28;20030;-69
2023/09/13 10:18:48;;;;;;;3.70;1.40;;;24.70;58.20;;;;;;5048984;28;20432;-69
2023/09/13 10:21:29;;;;;;;6.07;1.88;;;24.70;58.20;;;;;;5037805;28;20025;-69
2023/09/13 10:24:02;;;;;;;;;;;24.90;58.10;;;;;;5028911;28;20078;-69
2023/09/13 10:26:32;;;;;;;5.53;1.48;;;25.20;58.20;;;;;;5048062;28;19917;-69
2023/09/13 10:29:12;;;;;;;4.38;1.42;;;25.40;57.90;;;;;;5040405;28;20515;-71
2023/09/13 10:31:43;;;;;;;5.25;1.50;;;25.50;57.30;;;;;;5049276;28;20030;-71
2023/09/13 10:34:16;;;;;;;3.67;1.40;;;25.50;56.90;;;;;;5051817;28;20053;-71
2023/09/13 10:37:10;;;;;;;5.40;1.75;;;25.50;56.40;;;;;;5047658;28;20040;-70
2023/09/13 10:39:51;;;;;;;4.47;1.48;;;25.20;56.20;;;;;;5021305;28;20031;-71
2023/09/13 10:42:18;;;;;;;6.15;1.65;;;24.90;56.60;;;;;;5031779;28;20032;-70
2023/09/13 10:44:45;;;;;;;5.35;1.75;;;24.70;57.20;;;;;;5043737;28;20040;-71
2023/09/13 10:47:12;;;;;;;4.50;1.48;;;24.50;57.40;;;;;;5044206;28;20059;-71
2023/09/13 10:49:41;;;;;;;4.30;1.60;;;24.50;57.40;;;;;;5028849;28;20037;-71
2023/09/13 10:52:07;;;;;;;5.35;1.60;;;24.60;57.40;;;;;;5051372;28;20049;-71
2023/09/13 10:54:32;;;;;;;5.13;1.67;;;24.60;57.70;;;;;;5030476;28;20067;-71
2023/09/13 10:56:59;;;;;;;5.50;2.05;;;24.50;57.20;;;;;;5043820;28;20036;-72
2023/09/13 10:59:25;;;;;;;7.32;2.08;;;24.30;57.30;;;;;;5038873;28;20446;-71
2023/09/13 11:01:51;;;;;;;5.30;1.63;;;24.20;57.30;;;;;;5032788;28;20042;-71
2023/09/13 11:04:20;;;;;;;3.97;1.40;;;24.10;57.40;;;;;;5028315;28;20034;-70
2023/09/13 11:06:50;;;;;;;4.80;1.77;;;24.10;57.40;;;;;;5030465;28;20033;-71
2023/09/13 11:09:18;;;;;;;6.03;2.08;;;24.20;56.90;;;;;;5029813;28;20082;-71
2023/09/13 11:11:48;;;;;;;5.30;1.90;;;24.10;56.90;;;;;;5035552;28;20040;-71
2023/09/13 11:14:19;;;;;;;5.80;1.70;;;23.90;57.10;;;;;;5035718;28;20026;-71
2023/09/13 11:16:48;;;;;;;4.25;1.88;;;23.80;57.50;;;;;;5068989;28;20040;-71
2023/09/13 11:19:17;;;;;;;5.50;1.73;;;23.70;57.70;;;;;;5046615;28;20022;-71
2023/09/13 11:21:50;;;;;;;5.10;1.90;;;23.60;57.90;;;;;;5050669;28;20110;-71
2023/09/13 11:24:35;;;;;;;6.75;2.00;;;23.50;57.90;;;;;;5047714;28;20032;-70
2023/09/13 11:27:16;;;;;;;7.05;2.25;;;23.40;58.30;;;;;;5054234;28;20029;-71
2023/09/13 11:29:52;;;;;;;6.95;2.40;;;23.40;58.50;;;;;;5054772;28;20132;-71
2023/09/13 11:32:25;;;;;;;6.60;2.03;;;23.30;58.90;;;;;;5040011;28;20048;-71
2023/09/13 11:34:59;;;;;;;7.30;1.80;;;23.20;59.10;;;;;;5048748;28;20025;-71
2023/09/13 11:37:26;;;;;;;6.03;1.45;;;23.20;58.90;;;;;;5003860;28;20025;-71
2023/09/13 11:39:53;;;;;;;4.85;1.52;;;23.10;58.80;;;;;;5046014;28;20040;-71
2023/09/13 11:42:28;;;;;;;5.07;1.80;;;23.00;58.50;;;;;;5053634;28;20021;-71
2023/09/13 11:45:00;;;;;;;4.88;1.70;;;23.20;58.20;;;;;;5035227;28;20028;-71
2023/09/13 11:47:33;;;;;;;5.35;1.60;;;23.40;57.80;;;;;;5068539;28;20057;-71
2023/09/13 11:49:59;;;;;;;3.80;1.42;;;23.60;57.60;;;;;;5054733;28;20032;-71
2023/09/13 11:52:24;;;;;;;5.43;1.50;;;23.80;57.00;;;;;;5053423;28;20104;-71
2023/09/13 11:54:57;;;;;;;4.35;1.33;;;24.00;56.40;;;;;;5053539;28;20458;-70
2023/09/13 11:57:23;;;;;;;4.55;1.27;;;23.90;56.00;;;;;;5034797;28;20032;-71
2023/09/13 11:59:53;;;;;;;3.70;1.50;;;23.90;56.40;;;;;;5042099;28;20029;-71
2023/09/13 12:02:19;;;;;;;9.02;1.92;;;23.80;56.70;;;;;;5053307;28;20450;-71
2023/09/13 12:04:48;;;;;;;4.82;1.48;;;23.90;57.00;;;;;;5053180;28;20347;-71
2023/09/13 12:07:14;;;;;;;4.10;1.20;;;24.00;56.90;;;;;;5039743;28;20110;-71
2023/09/13 12:09:39;;;;;;;5.10;1.65;;;24.10;56.70;;;;;;5052475;28;20425;-71
2023/09/13 12:12:06;;;;;;;4.70;1.40;;;24.10;56.60;;;;;;5057360;28;20442;-70
2023/09/13 12:14:31;;;;;;;3.50;1.10;;;24.20;56.40;;;;;;5058449;28;20024;-70
2023/09/13 12:16:57;;;;;;;3.72;1.42;;;24.20;56.20;;;;;;5050094;28;20100;-71
2023/09/13 12:19:25;;;;;;;4.82;1.52;;;24.30;56.00;;;;;;5049574;28;20381;-71
2023/09/13 12:21:51;;;;;;;4.20;1.40;;;24.30;56.00;;;;;;5052949;28;20021;-71
2023/09/13 12:24:23;;;;;;;4.07;1.33;;;24.30;56.20;;;;;;5047584;28;20056;-71
2023/09/13 12:26:53;;;;;;;3.42;1.40;;;24.30;56.20;;;;;;5054785;28;20082;-70
2023/09/13 12:29:18;;;;;;;9.75;1.63;;;24.40;55.80;;;;;;5047592;28;20394;-71
2023/09/13 12:31:44;;;;;;;5.10;1.42;;;24.50;55.90;;;;;;5057047;28;20067;-71
2023/09/13 12:34:11;;;;;;;5.43;1.40;;;24.40;56.00;;;;;;5057142;28;20033;-71
2023/09/13 12:36:38;;;;;;;5.65;1.40;;;24.30;56.00;;;;;;5056953;28;20442;-70
2023/09/13 12:39:13;;;;;;;6.50;1.48;;;24.20;56.10;;;;;;5043478;28;20017;-71
2023/09/13 12:41:39;;;;;;;3.92;1.27;;;24.00;56.40;;;;;;5058011;28;20028;-71